Řízení letového provozu České republiky  
Aktualizace dat:  18.08.2018 11:56:07 UTC English version
   METEO Zobrazení stránky:  18.08.2018 11:56:35 UTC  
vysvětlivky
METAR EDDB 181150Z 25004KT 140V310 9999 BKN048 24/10 Q1021 NOSIG=
METAR EDDC 181150Z VRB04KT 9999 SCT028 SCT110 BKN320 23/15 Q1021 NOSIG=
METAR EDDE 181150Z 11004KT 360V170 9999 BKN030 24/14 Q1022 NOSIG=
METAR EDDF 181150Z VRB05KT CAVOK 26/09 Q1021 NOSIG=
METAR EDDM 181150Z 25008KT 220V280 CAVOK 24/15 Q1021 NOSIG=
METAR EDDN 181150Z 31009KT 260V360 CAVOK 28/14 Q1020 NOSIG=
METAR EDDP 181150Z VRB03KT 9999 FEW040 BKN042 24/13 Q1022 NOSIG=
METAR EDDT 181150Z VRB04KT CAVOK 25/10 Q1021 NOSIG=
METAR EDQM 181150Z 01008KT 290V060 CAVOK 23/13 Q1023=
METAR EPBY 181130Z 33006KT 280V010 9999 FEW040 26/15 Q1019 =
METAR EPGD 181130Z 28008KT 9999 SCT030 22/14 Q1019 =
METAR EPKK 181130Z VRB02KT 9999 FEW043CB 28/17 Q1019 =
METAR EPKT 181130Z VRB02KT 9999 FEW060TCU 27/12 Q1019 =
METAR EPLL 181130Z 36008KT 9999 TS BKN044CB 24/17 Q1019 =
METAR EPPO 181130Z 34005KT 300V070 9999 FEW018 26/15 Q1020 =
METAR EPRZ 181130Z 31005KT 270V020 9999 SCT040 26/16 Q1019 =
METAR EPWA 181130Z 21003KT 170V260 9999 SCT046 27/17 Q1019 NOSIG=
METAR EPWR 181130Z 31009KT 9999 FEW013 22/17 Q1021 =
METAR LHBP 181130Z 15005KT 090V210 CAVOK 32/16 Q1018 NOSIG=
METAR LHSM 181115Z 05004KT 9999 FEW060TCU 30/15 Q1019 NOSIG=
METAR LKCV 181100Z 28005KT 220V320 CAVOK 28/13 Q1019 NOSIG RMK BLU BLU=
METAR LKKB 181100Z 35008KT 320V040 CAVOK 24/14 Q1020 NOSIG RMK BLU BLU=
METAR LKKU NIL
METAR LKKV 181130Z 07006KT 040V120 9999 FEW049 26/14 Q1022 RMK REG QNH 1017=
METAR LKLN 181100Z AUTO 06004KT 330V120 CAVOK 29/13 Q1020=
METAR LKMT 181130Z 03005KT 330V110 CAVOK 28/13 Q1020 NOSIG RMK REG QNH 1017=
METAR LKNA 181100Z VRB03KT CAVOK 28/09 Q1020 NOSIG RMK BLU BLU=
METAR LKPD 181100Z 34005KT 270V090 CAVOK 29/11 Q1019 NOSIG RMK BLU BLU=
METAR LKPR 181130Z 02009KT CAVOK 25/13 Q1021 NOSIG RMK REG QNH 1017=
METAR LKTB 181130Z 14006KT 080V190 CAVOK 31/10 Q1019 NOSIG RMK REG QNH 1017=
METAR LKVO 181100Z 35008KT 290V100 CAVOK 24/13 Q1021=
METAR LOWI 181150Z 07007KT 010V140 9999 FEW070 SCT300 27/11 Q1020 NOSIG=
METAR LOWL 181150Z VRB04KT 9999 FEW060 SCT300 29/14 Q1020 NOSIG=
METAR LOWS 181150Z VRB04KT 9999 FEW045 BKN300 26/16 Q1021 NOSIG=
METAR LOWW 181150Z 02005KT 320V050 CAVOK 30/12 Q1019 NOSIG=
METAR LZIB 181130Z 33004KT 300V030 CAVOK 30/15 Q1018 NOSIG=
METAR LZKZ 181130Z VRB01KT 9999 VCTS FEW040CB 29/14 Q1018 NOSIG=
METAR LZPP 181130Z VRB03KT CAVOK 32/12 Q1018=
METAR LZSL 181130Z 20005KT 170V230 9999 FEW040 29/12 Q1019=
METAR LZTT 181130Z 07005KT 9999 BKN060 23/14 Q1021 NOSIG=
METAR LZZI 181130Z 24006KT 9999 SCT060 28/15 Q1019=